createdAt,value
2018-05-10T00:01:42.424Z,69.77
2018-05-10T00:04:45.680Z,69.50
2018-05-10T00:07:49.209Z,69.65
2018-05-10T00:10:53.467Z,69.92
2018-05-10T00:13:57.718Z,70.05
2018-05-10T00:17:01.064Z,70.34
2018-05-10T00:20:04.582Z,69.46
2018-05-10T00:23:08.673Z,69.27
2018-05-10T00:26:11.988Z,68.96
2018-05-10T00:29:15.622Z,69.56
2018-05-10T00:32:18.931Z,69.30
2018-05-10T00:35:22.290Z,69.03
2018-05-10T00:38:26.442Z,69.31
2018-05-10T00:41:30.026Z,69.78
2018-05-10T00:44:34.108Z,69.97
2018-05-10T00:47:37.540Z,70.37
2018-05-10T00:50:41.239Z,70.62
2018-05-10T00:53:46.067Z,70.62
2018-05-10T00:56:50.161Z,70.98
2018-05-10T00:59:53.436Z,70.88
2018-05-10T01:02:56.857Z,70.68
2018-05-10T01:06:00.282Z,70.28
2018-05-10T01:09:03.496Z,70.89
2018-05-10T01:12:08.246Z,70.64
2018-05-10T01:15:11.518Z,70.47
2018-05-10T01:18:14.807Z,70.72
2018-05-10T01:21:18.069Z,71.08
2018-05-10T01:24:21.330Z,70.94
2018-05-10T01:27:27.874Z,71.18
2018-05-10T01:30:43.425Z,71.36
2018-05-10T01:33:47.552Z,71.12
2018-05-10T01:36:50.823Z,70.53
2018-05-10T01:39:54.106Z,70.86
2018-05-10T01:42:57.362Z,70.66
2018-05-10T01:46:00.660Z,69.79
2018-05-10T01:49:03.996Z,69.50
2018-05-10T01:52:08.021Z,69.53
2018-05-10T01:55:11.282Z,70.09
2018-05-10T01:58:14.564Z,69.48
2018-05-10T02:01:17.811Z,69.64
2018-05-10T02:04:21.106Z,69.69
2018-05-10T02:07:24.365Z,69.38
2018-05-10T02:10:27.622Z,69.29
2018-05-10T02:13:31.014Z,69.13
2018-05-10T02:16:34.287Z,69.64
2018-05-10T02:19:38.301Z,69.41
2018-05-10T02:22:42.420Z,69.61
2018-05-10T02:25:46.489Z,69.63
2018-05-10T02:28:49.758Z,70.18
2018-05-10T02:31:53.004Z,70.18
2018-05-10T02:34:56.275Z,70.28
2018-05-10T02:37:59.524Z,70.33
2018-05-10T02:41:02.802Z,69.75
2018-05-10T02:44:06.820Z,69.35
2018-05-10T02:47:10.085Z,69.70
2018-05-10T02:50:13.329Z,70.30
2018-05-10T02:53:17.357Z,70.09
2018-05-10T02:56:20.625Z,69.58
2018-05-10T02:59:24.642Z,69.90
2018-05-10T03:02:27.930Z,69.44
2018-05-10T03:05:31.189Z,69.48
2018-05-10T03:08:34.520Z,70.46
2018-05-10T03:11:37.788Z,70.14
2018-05-10T03:14:41.042Z,70.21
2018-05-10T03:17:45.158Z,70.09
2018-05-10T03:20:49.173Z,69.88
2018-05-10T03:23:52.426Z,70.61
2018-05-10T03:26:55.708Z,70.58
2018-05-10T03:29:58.958Z,70.52
2018-05-10T03:33:02.970Z,71.32
2018-05-10T03:36:07.088Z,71.38
2018-05-10T03:39:11.117Z,71.16
2018-05-10T03:42:14.652Z,71.31
2018-05-10T03:45:17.916Z,71.48
2018-05-10T03:48:21.185Z,71.57
2018-05-10T03:51:24.505Z,71.41
2018-05-10T03:54:27.804Z,71.54
2018-05-10T03:57:31.808Z,71.36
2018-05-10T04:00:35.954Z,71.15
2018-05-10T04:03:57.213Z,70.94
2018-05-10T04:07:18.214Z,70.46
2018-05-10T04:10:39.194Z,70.63
2018-05-10T04:13:42.441Z,70.44
2018-05-10T04:16:45.687Z,70.06
2018-05-10T04:19:50.188Z,69.80
2018-05-10T04:22:53.547Z,69.59
2018-05-10T04:25:56.972Z,69.19
2018-05-10T04:29:01.858Z,68.11
2018-05-10T04:32:06.016Z,68.33
2018-05-10T04:35:09.312Z,67.61
2018-05-10T04:38:12.944Z,67.52
2018-05-10T04:41:16.249Z,67.54
2018-05-10T04:44:23.387Z,67.28
2018-05-10T04:47:26.778Z,67.26
2018-05-10T04:50:30.030Z,67.16
2018-05-10T04:53:34.984Z,66.60
2018-05-10T04:56:38.240Z,66.29
2018-05-10T04:59:41.771Z,66.24
2018-05-10T05:02:45.101Z,66.64
2018-05-10T05:05:49.313Z,66.38
2018-05-10T05:08:52.775Z,66.16
2018-05-10T05:11:56.202Z,65.91
2018-05-10T05:14:59.447Z,66.69
2018-05-10T05:18:03.757Z,66.20
2018-05-10T05:21:07.251Z,66.23
2018-05-10T05:24:11.342Z,66.37
2018-05-10T05:27:14.592Z,66.69
2018-05-10T05:30:17.904Z,65.84
2018-05-10T05:33:21.179Z,66.20
2018-05-10T05:36:24.460Z,65.95
2018-05-10T05:39:28.803Z,65.51
2018-05-10T05:42:32.511Z,65.39
2018-05-10T05:45:35.790Z,65.10
2018-05-10T05:48:39.975Z,64.84
2018-05-10T05:51:43.540Z,64.05
2018-05-10T05:54:46.842Z,63.72
2018-05-10T05:57:50.177Z,61.73
2018-05-10T06:00:53.445Z,54.31
2018-05-10T06:03:56.717Z,51.72
2018-05-10T06:07:00.017Z,46.82
2018-05-10T06:10:03.426Z,46.81
2018-05-10T06:13:07.782Z,44.80
2018-05-10T06:16:11.048Z,42.65
2018-05-10T06:19:14.428Z,45.62
2018-05-10T06:22:18.475Z,40.75
2018-05-10T06:25:21.742Z,39.84
2018-05-10T06:28:25.931Z,39.11
2018-05-10T06:31:29.239Z,36.70
2018-05-10T06:34:33.264Z,39.35
2018-05-10T06:37:37.293Z,39.19
2018-05-10T06:40:40.547Z,37.52
2018-05-10T06:43:43.869Z,38.12
2018-05-10T06:46:47.230Z,39.82
2018-05-10T06:49:50.405Z,38.93
2018-05-10T06:52:53.674Z,39.24
2018-05-10T06:55:57.917Z,42.81
2018-05-10T06:59:01.222Z,47.28
2018-05-10T07:02:04.479Z,42.14
2018-05-10T07:05:07.732Z,43.55
2018-05-10T07:08:12.157Z,42.38
2018-05-10T07:11:15.555Z,44.21
2018-05-10T07:14:18.825Z,42.83
2018-05-10T07:17:22.396Z,45.82
2018-05-10T07:20:26.397Z,43.20
2018-05-10T07:23:30.644Z,43.54
2018-05-10T07:26:34.072Z,45.05
2018-05-10T07:29:37.317Z,43.07
2018-05-10T07:32:42.087Z,40.97
2018-05-10T07:35:45.350Z,41.85
2018-05-10T07:38:48.605Z,43.54
2018-05-10T07:41:51.890Z,43.31
2018-05-10T07:44:56.013Z,38.63
2018-05-10T07:47:59.294Z,41.92
2018-05-10T07:51:02.536Z,40.35
2018-05-10T07:54:05.813Z,38.91
2018-05-10T07:57:09.857Z,41.23
2018-05-10T08:00:13.116Z,41.34
2018-05-10T08:03:17.242Z,40.34
2018-05-10T08:06:21.257Z,41.73
2018-05-10T08:09:25.311Z,39.99
2018-05-10T08:12:28.621Z,41.53
2018-05-10T08:15:31.892Z,42.50
2018-05-10T08:18:35.508Z,40.71
2018-05-10T08:21:38.777Z,41.73
2018-05-10T08:24:42.787Z,41.42
2018-05-10T08:27:47.799Z,42.41
2018-05-10T08:30:51.080Z,40.98
2018-05-10T08:33:55.303Z,40.65
2018-05-10T08:36:58.669Z,41.84
2018-05-10T08:40:02.108Z,41.12
2018-05-10T08:43:05.398Z,39.88
2018-05-10T08:46:08.661Z,43.70
2018-05-10T08:49:12.708Z,38.58
2018-05-10T08:52:16.138Z,38.99
2018-05-10T08:55:20.636Z,39.20
2018-05-10T08:58:23.910Z,41.75
2018-05-10T09:01:28.857Z,41.60
2018-05-10T09:04:32.247Z,42.66
2018-05-10T09:07:36.278Z,43.98
2018-05-10T09:10:39.526Z,44.06
2018-05-10T09:13:42.789Z,43.59
2018-05-10T09:16:46.075Z,42.01
2018-05-10T09:19:49.381Z,39.86
2018-05-10T09:22:52.690Z,40.53
2018-05-10T09:25:56.018Z,40.58
2018-05-10T09:28:59.311Z,41.10
2018-05-10T09:32:02.581Z,39.73
2018-05-10T09:35:05.848Z,39.56
2018-05-10T09:38:09.951Z,38.62
2018-05-10T09:41:13.216Z,38.66
2018-05-10T09:44:16.504Z,37.80
2018-05-10T09:47:19.783Z,37.94
2018-05-10T09:50:24.051Z,40.14
2018-05-10T09:53:27.434Z,38.42
2018-05-10T09:56:30.697Z,36.95
2018-05-10T09:59:33.958Z,38.63
2018-05-10T10:02:37.221Z,40.80
2018-05-10T10:05:41.259Z,39.00
2018-05-10T10:08:45.366Z,38.12
2018-05-10T10:11:49.386Z,35.90
2018-05-10T10:14:53.412Z,38.54
2018-05-10T10:17:57.461Z,37.57
2018-05-10T10:21:01.012Z,39.86
2018-05-10T10:24:04.361Z,40.48
2018-05-10T10:27:08.656Z,36.24
2018-05-10T10:30:12.683Z,36.73
2018-05-10T10:33:16.760Z,37.00
2018-05-10T10:36:20.010Z,38.00
2018-05-10T10:39:23.509Z,38.78
2018-05-10T10:42:27.551Z,38.12
2018-05-10T10:45:30.981Z,37.77
2018-05-10T10:48:34.174Z,36.93
2018-05-10T10:51:37.432Z,37.36
2018-05-10T10:54:40.813Z,37.10
2018-05-10T10:57:44.865Z,37.41
2018-05-10T11:00:48.114Z,39.75
2018-05-10T11:03:52.139Z,44.19
2018-05-10T11:06:56.171Z,38.21
2018-05-10T11:09:59.467Z,36.46
2018-05-10T11:13:03.669Z,37.74
2018-05-10T11:16:07.829Z,40.52
2018-05-10T11:19:11.118Z,35.87
2018-05-10T11:22:14.406Z,38.99
2018-05-10T11:25:18.431Z,34.35
2018-05-10T11:28:22.445Z,34.99
2018-05-10T11:31:25.704Z,35.58
2018-05-10T11:34:29.042Z,39.03
2018-05-10T11:37:33.069Z,37.86
2018-05-10T11:40:36.367Z,38.58
2018-05-10T11:43:39.683Z,35.62
2018-05-10T11:46:43.065Z,35.25
2018-05-10T11:49:46.386Z,35.63
2018-05-10T11:52:49.682Z,38.63
2018-05-10T11:55:52.938Z,38.64
2018-05-10T11:58:56.247Z,36.06
2018-05-10T12:01:59.580Z,39.04
2018-05-10T12:05:02.887Z,36.25
2018-05-10T12:08:06.143Z,38.43
2018-05-10T12:11:09.407Z,34.98
2018-05-10T12:14:12.660Z,33.32
2018-05-10T12:17:16.691Z,37.44
2018-05-10T12:20:20.011Z,35.99
2018-05-10T12:23:23.247Z,36.56
2018-05-10T12:26:26.605Z,37.07
2018-05-10T12:29:29.847Z,40.07
2018-05-10T12:32:34.629Z,40.34
2018-05-10T12:35:37.956Z,39.24
2018-05-10T12:38:41.233Z,36.52
2018-05-10T12:41:44.528Z,38.64
2018-05-10T12:44:47.788Z,40.20
2018-05-10T12:48:02.642Z,42.19
2018-05-10T12:51:06.005Z,39.35
2018-05-10T12:54:09.271Z,39.27
2018-05-10T12:57:12.514Z,38.28
2018-05-10T13:00:15.788Z,39.23
2018-05-10T13:03:19.818Z,41.86
2018-05-10T13:06:23.121Z,43.65
2018-05-10T13:09:27.185Z,43.15
2018-05-10T13:12:30.434Z,42.00
2018-05-10T13:15:33.698Z,41.77
2018-05-10T13:18:36.978Z,42.66
2018-05-10T13:21:40.422Z,40.09
2018-05-10T13:24:43.815Z,41.55
2018-05-10T13:27:47.938Z,41.74
2018-05-10T13:30:52.251Z,42.86
2018-05-10T13:33:57.798Z,41.93
2018-05-10T13:37:01.113Z,43.39
2018-05-10T13:40:05.174Z,43.52
2018-05-10T13:43:08.503Z,40.90
2018-05-10T13:46:11.845Z,40.78
2018-05-10T13:49:15.178Z,41.24
2018-05-10T13:52:18.608Z,38.79
2018-05-10T13:55:21.896Z,39.94
2018-05-10T13:58:25.387Z,39.60
2018-05-10T14:01:53.554Z,39.86
2018-05-10T14:04:58.334Z,37.29
2018-05-10T14:08:01.693Z,38.60
2018-05-10T14:11:05.770Z,40.01
2018-05-10T14:14:09.019Z,39.11
2018-05-10T14:17:12.300Z,40.60
2018-05-10T14:20:16.387Z,41.10
2018-05-10T14:23:19.895Z,41.53
2018-05-10T14:26:23.190Z,40.11
2018-05-10T14:29:26.568Z,40.78
2018-05-10T14:32:29.857Z,40.82
2018-05-10T14:35:33.128Z,40.82
2018-05-10T14:38:43.208Z,40.53
2018-05-10T14:41:46.732Z,40.06
2018-05-10T14:44:50.668Z,41.25
2018-05-10T14:47:54.847Z,40.99
2018-05-10T14:50:59.411Z,41.88
2018-05-10T14:54:03.167Z,41.66
2018-05-10T14:57:06.466Z,42.51
2018-05-10T15:00:09.766Z,40.71
2018-05-10T15:03:13.127Z,41.74
2018-05-10T15:06:16.486Z,41.40
2018-05-10T15:09:19.829Z,42.73
2018-05-10T15:12:23.123Z,42.53
2018-05-10T15:15:26.517Z,42.29
2018-05-10T15:18:29.726Z,42.47
2018-05-10T15:21:33.777Z,42.84
2018-05-10T15:24:37.113Z,43.44
2018-05-10T15:27:40.413Z,43.22
2018-05-10T15:30:43.777Z,41.46
2018-05-10T15:33:47.055Z,41.84
2018-05-10T15:36:50.362Z,43.57
2018-05-10T15:39:53.811Z,41.61
2018-05-10T15:42:57.272Z,42.86
2018-05-10T15:46:00.710Z,42.48
2018-05-10T15:49:04.072Z,44.55
2018-05-10T15:52:07.445Z,43.61
2018-05-10T15:55:10.720Z,45.34
2018-05-10T15:58:14.044Z,44.08
2018-05-10T16:01:17.325Z,44.70
2018-05-10T16:04:20.578Z,44.54
2018-05-10T16:07:23.856Z,46.41
2018-05-10T16:10:27.181Z,46.70
2018-05-10T16:13:31.706Z,47.05
2018-05-10T16:16:35.735Z,47.31
2018-05-10T16:19:38.991Z,46.72
2018-05-10T16:22:43.090Z,47.18
2018-05-10T16:25:46.369Z,47.54
2018-05-10T16:28:49.667Z,46.29
2018-05-10T16:31:53.763Z,46.16
2018-05-10T16:34:57.067Z,45.66
2018-05-10T16:38:01.060Z,45.30
2018-05-10T16:41:04.399Z,47.05
2018-05-10T16:44:07.696Z,47.27
2018-05-10T16:47:10.981Z,47.23
2018-05-10T16:50:14.234Z,46.18
2018-05-10T16:53:18.277Z,46.40
2018-05-10T16:56:21.568Z,47.62
2018-05-10T16:59:24.849Z,47.73
2018-05-10T17:02:28.154Z,47.04
2018-05-10T17:05:31.495Z,47.87
2018-05-10T17:08:35.524Z,48.24
2018-05-10T17:11:38.860Z,48.90
2018-05-10T17:14:42.145Z,48.63
2018-05-10T17:17:45.417Z,49.10
2018-05-10T17:20:48.671Z,49.36
2018-05-10T17:23:51.927Z,48.51
2018-05-10T17:26:55.244Z,49.09
2018-05-10T17:29:58.503Z,50.06
2018-05-10T17:33:02.539Z,48.90
2018-05-10T17:36:05.931Z,49.38
2018-05-10T17:39:09.230Z,50.94
2018-05-10T17:42:12.581Z,50.54
2018-05-10T17:45:16.034Z,50.49
2018-05-10T17:48:19.295Z,51.56
2018-05-10T17:51:22.597Z,51.94
2018-05-10T17:54:25.840Z,52.34
2018-05-10T17:57:29.376Z,52.57
2018-05-10T18:00:32.650Z,53.33
2018-05-10T18:03:35.922Z,53.48
2018-05-10T18:06:39.978Z,53.72
2018-05-10T18:09:43.249Z,53.54
2018-05-10T18:12:47.312Z,53.88
2018-05-10T18:15:50.572Z,54.67
2018-05-10T18:18:56.770Z,54.68
2018-05-10T18:22:01.319Z,55.32
2018-05-10T18:25:04.595Z,55.68
2018-05-10T18:28:08.698Z,55.73
2018-05-10T18:31:12.107Z,56.21
2018-05-10T18:34:15.414Z,56.76
2018-05-10T18:37:19.058Z,56.71
2018-05-10T18:40:22.365Z,56.54
2018-05-10T18:43:25.681Z,56.84
2018-05-10T18:46:29.766Z,57.64
2018-05-10T18:49:33.010Z,57.23
2018-05-10T18:52:36.277Z,57.66
2018-05-10T18:55:39.620Z,57.66
2018-05-10T18:58:42.973Z,57.94
2018-05-10T19:01:46.258Z,58.32
2018-05-10T19:04:49.505Z,58.80
2018-05-10T19:07:52.874Z,59.09
2018-05-10T19:10:56.185Z,59.15
2018-05-10T19:13:59.492Z,59.96
2018-05-10T19:17:02.849Z,60.74
2018-05-10T19:20:06.941Z,61.91
2018-05-10T19:23:10.502Z,62.91
2018-05-10T19:26:13.753Z,63.10
2018-05-10T19:29:17.016Z,63.92
2018-05-10T19:32:21.462Z,64.42
2018-05-10T19:35:24.735Z,66.76
2018-05-10T19:38:28.366Z,67.81
2018-05-10T19:41:31.641Z,68.97
2018-05-10T19:44:34.958Z,69.38
2018-05-10T19:47:38.269Z,69.10
2018-05-10T19:50:41.602Z,69.59
2018-05-10T19:53:44.893Z,72.10
2018-05-10T19:56:48.285Z,71.89
2018-05-10T19:59:51.776Z,72.99
2018-05-10T20:02:56.318Z,72.69
2018-05-10T20:05:59.579Z,72.98
2018-05-10T20:09:03.629Z,74.63
2018-05-10T20:12:06.877Z,75.46
2018-05-10T20:15:11.006Z,74.80
2018-05-10T20:18:15.439Z,74.84
2018-05-10T20:21:23.061Z,75.32
2018-05-10T20:24:26.320Z,75.60
2018-05-10T20:27:29.626Z,77.27
2018-05-10T20:30:33.755Z,80.03
2018-05-10T20:33:37.790Z,79.73
2018-05-10T20:36:41.104Z,80.21
2018-05-10T20:39:45.787Z,80.34
2018-05-10T20:42:50.188Z,79.21
2018-05-10T20:45:53.438Z,79.77
2018-05-10T20:48:56.699Z,79.58
2018-05-10T20:51:59.981Z,79.13
2018-05-10T20:55:03.263Z,78.27
2018-05-10T20:58:36.768Z,79.41
2018-05-10T21:01:42.321Z,79.18
2018-05-10T21:04:45.581Z,79.90
2018-05-10T21:07:49.626Z,79.76
2018-05-10T21:10:52.952Z,79.55
2018-05-10T21:13:56.215Z,80.36
2018-05-10T21:16:59.481Z,80.40
2018-05-10T21:20:03.514Z,80.50
2018-05-10T21:23:06.843Z,80.65
2018-05-10T21:26:10.063Z,80.70
2018-05-10T21:29:13.297Z,80.06
2018-05-10T21:32:16.759Z,80.64
2018-05-10T21:35:20.026Z,78.94
2018-05-10T21:38:24.058Z,78.46
2018-05-10T21:41:27.324Z,78.53
2018-05-10T21:44:30.581Z,78.21
2018-05-10T21:47:33.871Z,78.36
2018-05-10T21:50:37.126Z,77.79
2018-05-10T21:53:41.254Z,78.03
2018-05-10T21:56:45.325Z,78.43
2018-05-10T21:59:49.369Z,78.84
2018-05-10T22:02:52.689Z,78.82
2018-05-10T22:05:56.716Z,78.89
2018-05-10T22:09:00.979Z,78.61
2018-05-10T22:12:04.273Z,78.67
2018-05-10T22:15:07.476Z,78.28
2018-05-10T22:18:10.749Z,78.12
2018-05-10T22:21:14.137Z,77.08
2018-05-10T22:24:18.167Z,76.69
2018-05-10T22:27:21.425Z,76.70
2018-05-10T22:30:24.681Z,76.90
2018-05-10T22:33:28.165Z,76.78
2018-05-10T22:36:32.182Z,76.99
2018-05-10T22:39:36.203Z,76.19
2018-05-10T22:42:40.336Z,76.05
2018-05-10T22:45:43.586Z,75.98
2018-05-10T22:48:48.279Z,75.65
2018-05-10T22:51:51.529Z,75.52
2018-05-10T22:54:54.851Z,75.61
2018-05-10T22:57:58.865Z,75.43
2018-05-10T23:01:03.013Z,75.52
2018-05-10T23:04:06.274Z,75.80
2018-05-10T23:07:09.527Z,75.53
2018-05-10T23:10:12.802Z,76.71
2018-05-10T23:13:16.921Z,76.16
2018-05-10T23:16:20.948Z,75.98
2018-05-10T23:19:24.969Z,76.05
2018-05-10T23:22:28.259Z,76.55
2018-05-10T23:25:32.279Z,76.81
2018-05-10T23:28:35.562Z,77.13
2018-05-10T23:31:38.819Z,77.48
2018-05-10T23:34:42.075Z,78.28
2018-05-10T23:37:46.108Z,78.30
2018-05-10T23:40:50.131Z,78.68
2018-05-10T23:43:54.147Z,79.16
2018-05-10T23:46:57.401Z,78.76
2018-05-10T23:50:00.657Z,79.05
2018-05-10T23:53:03.926Z,78.93
2018-05-10T23:56:07.979Z,79.04
2018-05-10T23:59:11.244Z,79.10
